Time;durP1;ratioP1;P1;durP2;ratioP2;P2;SDS_P1;SDS_P2;PMS_P1;PMS_P2;Temp;Humidity;BMP_temperature;BMP_pressure;BME280_temperature;BME280_humidity;BME280_pressure;Samples;Min_cycle;Max_cycle;Signal;HPM_P1;HPM_P2
2021/07/26 00:01:58;;;;;;;8.60;5.23;;;;;;;18.40;100.00;100753.66;5269220;28;20027;-67
2021/07/26 00:04:29;;;;;;;10.50;5.38;;;;;;;18.40;100.00;100748.34;5264505;28;20024;-67
2021/07/26 00:07:01;;;;;;;6.67;4.37;;;;;;;18.40;100.00;100753.66;5273367;28;20028;-67
2021/07/26 00:09:34;;;;;;;5.80;4.27;;;;;;;18.41;100.00;100739.38;5271262;28;20079;-67
2021/07/26 00:12:07;;;;;;;5.20;4.22;;;;;;;18.41;100.00;100739.38;5271397;28;20030;-67
2021/07/26 00:14:38;;;;;;;;;;;;;;;18.70;100.00;100728.78;5271044;28;20528;-67
2021/07/26 00:17:09;;;;;;;9.90;4.30;;;;;;;18.38;100.00;100726.53;5259952;28;19917;-67
2021/07/26 00:19:41;;;;;;;6.00;4.47;;;;;;;18.36;100.00;100725.88;5266584;28;20294;-67
2021/07/26 00:22:12;;;;;;;5.83;4.77;;;;;;;18.32;100.00;100721.94;5265498;28;20036;-67
2021/07/26 00:24:44;;;;;;;5.18;4.22;;;;;;;18.28;100.00;100720.66;5262321;28;20275;-67
2021/07/26 00:27:15;;;;;;;5.77;3.87;;;;;;;18.23;100.00;100721.22;5259473;28;20039;-67
2021/07/26 00:29:46;;;;;;;6.17;4.43;;;;;;;18.19;100.00;100714.63;5268486;28;20025;-67
2021/07/26 00:32:18;;;;;;;6.47;4.50;;;;;;;18.19;100.00;100719.94;5270102;28;20470;-67
2021/07/26 00:34:49;;;;;;;7.63;4.60;;;;;;;18.17;100.00;100720.09;5270445;28;20032;-67
2021/07/26 00:37:20;;;;;;;6.43;4.87;;;;;;;18.11;100.00;100726.16;5263909;28;20027;-67
2021/07/26 00:39:53;;;;;;;6.63;4.40;;;;;;;18.12;100.00;100725.13;5263858;28;20039;-67
2021/07/26 00:42:24;;;;;;;5.30;4.57;;;;;;;18.12;100.00;100719.03;5269541;28;20028;-67
2021/07/26 00:44:56;;;;;;;6.57;5.10;;;;;;;18.12;100.00;100725.13;5271088;28;20397;-67
2021/07/26 00:47:27;;;;;;;9.50;5.53;;;;;;;18.09;100.00;100714.91;5271854;28;20079;-67
2021/07/26 00:49:58;;;;;;;8.10;4.97;;;;;;;18.09;100.00;100714.91;5239156;28;20033;-67
2021/07/26 00:52:30;;;;;;;7.17;5.03;;;;;;;18.09;100.00;100714.91;5270039;28;20044;-67
2021/07/26 00:55:01;;;;;;;6.70;4.60;;;;;;;18.06;100.00;100717.91;5271052;28;20043;-67
2021/07/26 00:57:33;;;;;;;7.27;4.50;;;;;;;18.06;100.00;100712.59;5264002;28;20247;-67
2021/07/26 01:00:05;;;;;;;7.40;5.13;;;;;;;18.03;100.00;100717.44;5270904;28;20040;-67
2021/07/26 01:02:36;;;;;;;6.05;4.72;;;;;;;18.05;100.00;100716.25;5269130;28;20044;-67
2021/07/26 01:05:08;;;;;;;6.53;4.40;;;;;;;17.96;100.00;100710.22;5261578;28;20028;-67
2021/07/26 01:07:39;;;;;;;8.17;5.20;;;;;;;17.94;100.00;100717.53;5271476;28;20316;-67
2021/07/26 01:10:10;;;;;;;6.28;4.38;;;;;;;17.93;100.00;100715.06;5262268;28;20058;-67
2021/07/26 01:12:42;;;;;;;7.80;5.37;;;;;;;17.91;100.00;100712.59;5262590;28;20024;-67
2021/07/26 01:15:14;;;;;;;8.38;5.22;;;;;;;17.83;100.00;100709.19;5264025;28;20187;-67
2021/07/26 01:18:20;;;;;;;8.00;4.70;;;;;;;17.98;100.00;100720.66;5269550;28;20087;-67
2021/07/26 01:21:06;;;;;;;8.63;4.40;;;;;;;17.90;100.00;100720.72;5265755;28;20082;-67
2021/07/26 01:23:39;;;;;;;6.13;5.00;;;;;;;17.81;100.00;100722.66;5270390;28;20032;-67
2021/07/26 01:26:13;;;;;;;8.05;4.50;;;;;;;17.82;100.00;100726.13;5266968;28;20033;-67
2021/07/26 01:28:47;;;;;;;6.35;4.75;;;;;;;17.74;100.00;100730.44;5267567;28;20031;-67
2021/07/26 01:31:19;;;;;;;9.15;4.60;;;;;;;17.72;100.00;100727.16;5264209;28;20024;-67
2021/07/26 01:33:51;;;;;;;6.18;4.57;;;;;;;17.68;100.00;100728.50;5269336;28;21351;-67
2021/07/26 01:36:23;;;;;;;5.53;4.65;;;;;;;17.73;100.00;100733.28;5270190;28;20021;-67
2021/07/26 01:38:54;;;;;;;6.37;4.30;;;;;;;17.71;100.00;100728.16;5270380;28;20021;-67
2021/07/26 01:41:30;;;;;;;4.83;3.87;;;;;;;17.65;100.00;100717.44;5271423;28;20599;-67
2021/07/26 01:44:03;;;;;;;4.60;4.15;;;;;;;17.66;100.00;100738.47;5263637;28;20099;-67
2021/07/26 01:46:46;;;;;;;6.40;4.78;;;;;;;17.65;100.00;100738.63;5271301;28;20024;-67
2021/07/26 01:49:36;;;;;;;;;;;;;;;17.93;100.00;100736.28;5271165;28;20111;-67
2021/07/26 01:52:08;;;;;;;5.53;4.15;;;;;;;17.64;100.00;100737.00;5271325;28;20576;-67
2021/07/26 01:54:40;;;;;;;7.65;3.90;;;;;;;17.57;100.00;100728.94;5270122;28;20190;-67
2021/07/26 01:57:12;;;;;;;4.37;3.93;;;;;;;17.56;100.00;100731.78;5271340;28;20028;-67
2021/07/26 01:59:44;;;;;;;7.65;4.10;;;;;;;17.54;100.00;100731.97;5271144;28;20470;-67
2021/07/26 02:02:16;;;;;;;5.47;4.43;;;;;;;17.52;100.00;100736.59;5262302;28;20028;-67
2021/07/26 02:04:47;;;;;;;6.33;4.53;;;;;;;17.50;100.00;100742.09;5238534;28;20477;-67
2021/07/26 02:07:18;;;;;;;5.07;4.30;;;;;;;17.50;100.00;100739.44;5267924;28;20070;-67
2021/07/26 02:09:49;;;;;;;6.23;4.43;;;;;;;17.50;100.00;100733.28;5268320;28;20075;-67
2021/07/26 02:12:21;;;;;;;5.93;4.00;;;;;;;17.50;100.00;100739.44;5268674;28;20032;-67
2021/07/26 02:14:52;;;;;;;6.82;4.25;;;;;;;17.54;100.00;100742.56;5273441;28;20059;-67
2021/07/26 02:17:23;;;;;;;6.35;4.60;;;;;;;17.52;100.00;100739.25;5272764;28;20032;-67
2021/07/26 02:19:54;;;;;;;4.55;4.15;;;;;;;17.55;100.00;100744.19;5274843;28;20024;-67
2021/07/26 02:22:26;;;;;;;6.30;4.32;;;;;;;17.56;100.00;100739.72;5273328;28;20115;-67
2021/07/26 02:24:58;;;;;;;6.13;4.25;;;;;;;17.54;100.00;100742.56;5272986;28;20031;-67
2021/07/26 02:27:29;;;;;;;5.72;4.38;;;;;;;17.51;100.00;100738.44;5272371;28;20025;-67
2021/07/26 02:30:00;;;;;;;6.97;4.75;;;;;;;17.49;100.00;100735.13;5271920;28;20020;-67
2021/07/26 02:32:31;;;;;;;6.43;4.88;;;;;;;17.48;100.00;100744.09;5272843;28;20718;-66
2021/07/26 02:35:03;;;;;;;7.00;4.65;;;;;;;17.42;100.00;100742.13;5273243;28;20469;-67
2021/07/26 02:37:35;;;;;;;5.03;4.10;;;;;;;17.43;100.00;100741.16;5270635;28;20506;-66
2021/07/26 02:40:07;;;;;;;6.77;4.37;;;;;;;17.39;100.00;100737.22;5272141;28;20398;-66
2021/07/26 02:42:38;;;;;;;5.50;4.27;;;;;;;17.39;100.00;100739.88;5266808;28;20033;-67
2021/07/26 02:45:09;;;;;;;6.77;4.20;;;;;;;17.40;100.00;100741.50;5273630;28;20067;-67
2021/07/26 02:47:41;;;;;;;5.43;4.85;;;;;;;17.35;100.00;100741.22;5271847;28;20060;-67
2021/07/26 02:50:12;;;;;;;7.80;4.35;;;;;;;17.39;100.00;100742.50;5269076;28;20105;-67
2021/07/26 02:52:44;;;;;;;7.17;4.30;;;;;;;17.33;100.00;100745.84;5270834;28;20096;-67
2021/07/26 02:55:15;;;;;;;8.23;5.38;;;;;;;17.31;100.00;100761.06;5271265;28;20028;-66
2021/07/26 02:57:47;;;;;;;5.63;4.55;;;;;;;17.30;100.00;100753.31;5271728;28;20044;-66
2021/07/26 03:00:18;;;;;;;7.60;4.55;;;;;;;17.22;100.00;100749.72;5273215;28;20218;-66
2021/07/26 03:02:49;;;;;;;7.32;5.07;;;;;;;17.21;100.00;100761.31;5274272;28;20028;-66
2021/07/26 03:05:22;;;;;;;5.47;4.40;;;;;;;17.21;100.00;100755.22;5272314;28;20123;-67
2021/07/26 03:07:53;;;;;;;6.55;4.75;;;;;;;17.19;100.00;100759.84;5272331;28;20381;-67
2021/07/26 03:10:24;;;;;;;6.32;4.60;;;;;;;17.21;100.00;100763.97;5271176;28;20037;-66
2021/07/26 03:12:56;;;;;;;8.88;4.55;;;;;;;17.21;100.00;100769.28;5273648;28;20028;-66
2021/07/26 03:15:27;;;;;;;8.40;4.75;;;;;;;17.22;100.00;100770.09;5268457;28;20032;-66
2021/07/26 03:17:58;;;;;;;7.87;4.53;;;;;;;17.21;100.00;100769.28;5268953;28;20489;-67
2021/07/26 03:20:30;;;;;;;6.67;4.37;;;;;;;17.19;100.00;100760.66;5272834;28;20017;-66
2021/07/26 03:23:07;;;;;;;4.90;4.38;;;;;;;17.21;100.00;100771.91;5270301;28;20028;-67
2021/07/26 03:25:40;;;;;;;6.63;4.88;;;;;;;17.15;100.00;100762.00;5270921;28;20529;-67
2021/07/26 03:28:12;;;;;;;4.90;4.03;;;;;;;17.15;100.00;100764.66;5272167;28;20394;-67
2021/07/26 03:30:43;;;;;;;7.13;4.82;;;;;;;17.14;100.00;100768.31;5268452;28;20062;-67
2021/07/26 03:33:14;;;;;;;6.10;4.85;;;;;;;17.12;100.00;100767.69;5272723;28;20048;-66
2021/07/26 03:35:46;;;;;;;7.50;4.90;;;;;;;17.11;100.00;100770.50;5272314;28;20115;-67
2021/07/26 03:38:21;;;;;;;6.50;4.63;;;;;;;17.12;100.00;100775.63;5270443;28;20032;-66
2021/07/26 03:40:53;;;;;;;6.75;4.72;;;;;;;17.07;100.00;100777.94;5271030;28;20101;-67
2021/07/26 03:43:24;;;;;;;6.15;4.57;;;;;;;17.05;100.00;100782.59;5271396;28;20024;-67
2021/07/26 03:45:55;;;;;;;6.25;4.07;;;;;;;17.02;100.00;100788.25;5272622;28;20036;-67
2021/07/26 03:48:27;;;;;;;4.95;4.05;;;;;;;17.00;100.00;100785.75;5255893;28;20049;-67
2021/07/26 03:50:58;;;;;;;6.00;4.55;;;;;;;16.98;100.00;100785.13;5254569;28;20406;-67
2021/07/26 03:53:29;;;;;;;5.97;4.65;;;;;;;16.99;100.00;100788.59;5253827;28;20522;-66
2021/07/26 03:56:00;;;;;;;5.77;4.63;;;;;;;16.96;100.00;100788.94;5253760;28;20509;-66
2021/07/26 03:58:32;;;;;;;7.35;5.07;;;;;;;16.95;100.00;100779.34;5254679;28;20490;-67
2021/07/26 04:01:03;;;;;;;5.57;4.13;;;;;;;16.95;100.00;100784.63;5251942;28;20522;-66
2021/07/26 04:03:34;;;;;;;4.88;3.97;;;;;;;16.94;100.00;100790.94;5253655;28;20398;-66
2021/07/26 04:06:10;;;;;;;7.25;4.22;;;;;;;16.92;100.00;100788.44;5252349;28;20440;-67
2021/07/26 04:08:44;;;;;;;4.68;4.05;;;;;;;16.88;100.00;100784.50;5254401;28;20025;-67
2021/07/26 04:14:04;;;;;;;6.82;4.40;;;;;;;16.84;100.00;100792.97;5252885;28;20068;-67
2021/07/26 04:16:35;;;;;;;7.30;4.15;;;;;;;16.87;100.00;100798.72;5254232;28;20025;-67
2021/07/26 04:19:10;;;;;;;6.75;4.53;;;;;;;16.87;100.00;100806.69;5254568;28;20032;-66
2021/07/26 04:21:42;;;;;;;4.82;4.13;;;;;;;16.84;100.00;100798.25;5253151;28;20025;-67
2021/07/26 04:24:13;;;;;;;6.80;4.85;;;;;;;16.88;100.00;100804.84;5253522;28;20036;-67
2021/07/26 04:26:44;;;;;;;6.20;4.50;;;;;;;16.86;100.00;100802.38;5253939;28;20406;-67
2021/07/26 04:29:16;;;;;;;7.28;4.60;;;;;;;16.87;100.00;100804.03;5253004;28;20029;-67
2021/07/26 04:31:50;;;;;;;7.60;4.53;;;;;;;16.86;100.00;100806.81;5253138;28;20028;-67
2021/07/26 04:34:21;;;;;;;4.85;4.32;;;;;;;16.84;100.00;100808.84;5254067;28;20344;-66
2021/07/26 04:36:53;;;;;;;6.55;4.57;;;;;;;16.83;100.00;100813.31;5250692;28;20495;-66
2021/07/26 04:39:24;;;;;;;5.93;4.55;;;;;;;16.85;100.00;100807.84;5253353;28;20114;-67
2021/07/26 04:41:55;;;;;;;7.90;4.95;;;;;;;16.82;100.00;100806.38;5253632;28;20025;-67
2021/07/26 04:44:26;;;;;;;5.90;4.57;;;;;;;16.82;100.00;100811.66;5252199;28;20037;-66
2021/07/26 04:46:58;;;;;;;5.78;4.65;;;;;;;16.81;100.00;100799.41;5252364;28;20506;-66
2021/07/26 04:49:29;;;;;;;6.88;5.13;;;;;;;16.84;100.00;100808.84;5250520;28;20025;-67
2021/07/26 04:52:00;;;;;;;7.53;5.18;;;;;;;16.84;100.00;100812.31;5247917;28;20020;-67
2021/07/26 04:54:32;;;;;;;7.78;4.45;;;;;;;16.85;100.00;100816.59;5250928;28;20036;-66
2021/07/26 04:57:03;;;;;;;6.25;4.50;;;;;;;16.85;100.00;100815.78;5248496;28;20033;-66
2021/07/26 04:59:34;;;;;;;6.35;4.75;;;;;;;16.86;100.00;100818.25;5249999;28;20521;-67
2021/07/26 05:02:06;;;;;;;7.90;4.53;;;;;;;16.88;100.00;100812.78;5250566;28;20037;-67
2021/07/26 05:04:38;;;;;;;6.70;4.60;;;;;;;16.90;100.00;100810.81;5248667;28;20087;-66
2021/07/26 05:07:09;;;;;;;6.32;4.80;;;;;;;16.92;100.00;100822.03;5250307;28;20498;-67
2021/07/26 05:09:40;;;;;;;6.03;4.68;;;;;;;16.96;100.00;100818.03;5252318;28;20118;-66
2021/07/26 05:12:12;;;;;;;7.50;5.28;;;;;;;16.99;100.00;100821.16;5249363;28;20021;-67
2021/07/26 05:14:47;;;;;;;6.50;4.55;;;;;;;17.04;100.00;100812.69;5231147;28;20029;-68
2021/07/26 05:17:26;;;;;;;7.22;4.70;;;;;;;17.05;100.00;100808.22;5250446;28;20022;-67
2021/07/26 05:19:57;;;;;;;8.93;4.93;;;;;;;17.07;100.00;100808.91;5251229;28;20029;-66
2021/07/26 05:22:29;;;;;;;7.25;4.80;;;;;;;17.10;100.00;100812.03;5250260;28;20043;-66
2021/07/26 05:25:00;;;;;;;7.45;4.57;;;;;;;17.14;100.00;100808.03;5249766;28;20478;-66
2021/07/26 05:27:31;;;;;;;5.68;4.78;;;;;;;17.15;100.00;100809.66;5248255;28;20440;-66
2021/07/26 05:30:04;;;;;;;5.60;4.63;;;;;;;17.20;100.00;100810.00;5249399;28;20048;-67
2021/07/26 05:32:35;;;;;;;5.35;4.60;;;;;;;17.24;100.00;100808.63;5250519;28;20067;-66
2021/07/26 05:35:07;;;;;;;7.90;5.55;;;;;;;17.26;100.00;100811.91;5251917;28;20137;-66
2021/07/26 05:37:39;;;;;;;11.30;5.60;;;;;;;17.30;100.00;100817.69;5248719;28;20036;-66
2021/07/26 05:40:11;;;;;;;7.95;5.47;;;;;;;17.36;100.00;100813.53;5249298;28;20039;-67
2021/07/26 05:42:42;;;;;;;9.35;5.50;;;;;;;17.40;100.00;100818.31;5250502;28;20028;-66
2021/07/26 05:45:13;;;;;;;7.60;4.90;;;;;;;17.45;100.00;100810.66;5248905;28;20037;-66
2021/07/26 05:47:49;;;;;;;7.35;5.18;;;;;;;17.52;100.00;100818.72;5250219;28;20045;-66
2021/07/26 05:50:21;;;;;;;5.85;4.82;;;;;;;17.57;100.00;100826.94;5250712;28;20036;-66
2021/07/26 05:52:52;;;;;;;6.80;5.35;;;;;;;17.61;100.00;100819.47;5271861;28;20024;-67
2021/07/26 05:55:23;;;;;;;8.37;5.50;;;;;;;17.68;100.00;100823.91;5271745;28;20032;-66
2021/07/26 05:57:56;;;;;;;7.65;5.60;;;;;;;17.77;100.00;100822.06;5272017;28;20028;-67
2021/07/26 06:00:41;;;;;;;7.07;5.90;;;;;;;17.81;100.00;100831.31;5272051;28;20428;-68
2021/07/26 06:03:13;;;;;;;11.45;6.60;;;;;;;17.87;100.00;100824.44;5249241;28;20182;-67
2021/07/26 06:05:44;;;;;;;7.60;6.68;;;;;;;17.95;100.00;100819.91;5271577;28;20108;-68
2021/07/26 06:08:15;;;;;;;9.07;6.07;;;;;;;18.02;100.00;100821.84;5270736;28;20028;-67
2021/07/26 06:10:47;;;;;;;9.13;6.13;;;;;;;18.03;100.00;100823.47;5272270;28;20032;-67
2021/07/26 06:13:18;;;;;;;7.40;6.03;;;;;;;18.09;100.00;100822.78;5271842;28;20308;-67
2021/07/26 06:15:49;;;;;;;7.25;6.43;;;;;;;18.20;100.00;100823.16;5270970;28;20067;-66
2021/07/26 06:18:21;;;;;;;10.05;6.70;;;;;;;18.24;100.00;100816.50;5272700;28;20031;-67
2021/07/26 06:20:52;;;;;;;9.75;7.25;;;;;;;18.30;100.00;100822.91;5271716;28;20048;-67
2021/07/26 06:23:26;;;;;;;8.83;6.43;;;;;;;18.31;100.00;100824.56;5272069;28;20409;-67
2021/07/26 06:25:57;;;;;;;8.27;6.35;;;;;;;18.35;100.00;100827.66;5271890;28;20120;-66
2021/07/26 06:28:28;;;;;;;7.90;6.72;;;;;;;18.37;100.00;100829.16;5273621;28;20108;-67
2021/07/26 06:31:01;;;;;;;10.00;6.43;;;;;;;18.47;100.00;100827.03;5273456;28;20486;-66
2021/07/26 06:33:32;;;;;;;;;;;;;;;18.67;100.00;100826.47;5270541;28;20043;-66
2021/07/26 06:36:04;;;;;;;8.47;6.73;;;;;;;18.59;100.00;100819.44;5272166;28;19916;-67
2021/07/26 06:38:36;;;;;;;9.23;7.07;;;;;;;18.59;100.00;100822.09;5271749;28;20028;-67
2021/07/26 06:41:07;;;;;;;11.13;7.88;;;;;;;18.62;100.00;100820.91;5255870;28;20047;-67
2021/07/26 06:43:39;;;;;;;7.50;6.67;;;;;;;18.77;100.00;100823.59;5272839;28;20470;-67
2021/07/26 06:46:10;;;;;;;8.70;7.80;;;;;;;18.86;100.00;100830.44;5267596;28;20032;-68
2021/07/26 06:48:41;;;;;;;8.07;6.73;;;;;;;18.93;100.00;100821.53;5274836;28;20049;-67
2021/07/26 06:51:13;;;;;;;10.63;6.70;;;;;;;18.97;100.00;100829.97;5272423;28;20078;-69
2021/07/26 06:53:44;;;;;;;12.70;6.97;;;;;;;18.96;100.00;100828.31;5252848;28;20047;-68
2021/07/26 06:56:15;;;;;;;7.87;6.30;;;;;;;19.00;100.00;100832.25;5273352;28;20067;-67
2021/07/26 06:58:47;;;;;;;7.67;6.13;;;;;;;19.01;100.00;100827.75;5272960;28;20397;-68
2021/07/26 07:01:18;;;;;;;9.23;7.30;;;;;;;19.06;100.00;100830.69;5269672;28;20038;-67
2021/07/26 07:03:49;;;;;;;7.40;5.70;;;;;;;19.14;100.00;100823.44;5270285;28;20068;-66
2021/07/26 07:06:23;;;;;;;8.47;5.70;;;;;;;19.23;100.00;100826.81;5270675;28;20074;-67
2021/07/26 07:08:55;;;;;;;9.85;6.10;;;;;;;19.32;100.00;100824.84;5272062;28;20104;-67
2021/07/26 07:11:26;;;;;;;7.57;5.83;;;;;;;19.36;100.00;100826.16;5274049;28;20110;-67
2021/07/26 07:13:57;;;;;;;7.70;5.60;;;;;;;19.40;100.00;100835.38;5274076;28;20070;-67
2021/07/26 07:16:29;;;;;;;7.50;5.80;;;;;;;19.48;100.00;100837.91;5271580;28;20017;-68
2021/07/26 07:19:00;;;;;;;8.63;5.37;;;;;;;19.50;100.00;100841.19;5271581;28;20107;-67
2021/07/26 07:21:31;;;;;;;8.63;5.50;;;;;;;19.52;100.00;100843.69;5272592;28;20379;-66
2021/07/26 07:24:03;;;;;;;8.90;4.90;;;;;;;19.60;100.00;100841.72;5275146;28;20056;-66
2021/07/26 07:26:35;;;;;;;4.93;4.43;;;;;;;19.68;100.00;100844.28;5274722;28;20107;-67
2021/07/26 07:29:07;;;;;;;7.13;5.23;;;;;;;19.69;100.00;100853.88;5275230;28;20032;-66
2021/07/26 07:31:38;;;;;;;7.03;5.40;;;;;;;19.72;100.00;100844.72;5273132;28;20282;-66
2021/07/26 07:34:11;;;;;;;6.80;4.40;;;;;;;19.95;100.00;100854.34;5274043;28;20043;-66
2021/07/26 07:36:42;;;;;;;;;;;;;;;20.19;100.00;100851.25;5274902;28;20120;-70
2021/07/26 07:39:13;;;;;;;5.85;4.32;;;;;;;20.10;100.00;100849.75;5271426;28;19987;-67
2021/07/26 07:41:45;;;;;;;5.23;4.67;;;;;;;20.31;100.00;100848.91;5252705;28;20712;-67
2021/07/26 07:44:16;;;;;;;5.87;3.87;;;;;;;20.49;100.00;100846.56;5268587;28;20054;-67
2021/07/26 07:46:47;;;;;;;6.20;4.30;;;;;;;20.37;100.00;100858.75;5272395;28;20056;-67
2021/07/26 07:49:19;;;;;;;6.57;3.93;;;;;;;20.33;100.00;100857.50;5272260;28;20500;-67
2021/07/26 07:51:50;;;;;;;7.97;4.10;;;;;;;20.47;100.00;100851.25;5272830;28;20550;-68
2021/07/26 07:54:22;;;;;;;4.50;3.80;;;;;;;20.56;100.00;100842.13;5272246;28;20485;-67
2021/07/26 07:56:53;;;;;;;5.63;3.43;;;;;;;20.68;100.00;100849.56;5270586;28;20025;-67
2021/07/26 07:59:24;;;;;;;7.63;3.70;;;;;;;20.87;100.00;100840.84;5269955;28;20028;-67
2021/07/26 08:01:56;;;;;;;7.07;3.53;;;;;;;20.88;100.00;100847.84;5268306;28;20410;-67
2021/07/26 08:04:28;;;;;;;4.10;3.27;;;;;;;21.14;99.98;100847.94;5269548;28;20549;-67
2021/07/26 08:06:59;;;;;;;6.50;3.10;;;;;;;21.27;98.52;100860.50;5271458;28;20068;-68
2021/07/26 08:09:31;;;;;;;7.10;3.20;;;;;;;21.37;97.39;100854.81;5268802;28;20564;-69
2021/07/26 08:12:02;;;;;;;5.07;3.20;;;;;;;21.45;95.76;100856.47;5269699;28;20032;-69
2021/07/26 08:14:33;;;;;;;5.37;3.17;;;;;;;21.54;96.38;100849.94;5268632;28;20100;-68
2021/07/26 08:17:05;;;;;;;3.47;2.80;;;;;;;21.49;96.11;100863.88;5269768;28;20035;-68
2021/07/26 08:19:36;;;;;;;3.67;3.03;;;;;;;21.49;95.15;100861.19;5267394;28;20055;-68
2021/07/26 08:22:07;;;;;;;4.30;3.07;;;;;;;21.33;94.53;100865.06;5270342;28;20283;-68
2021/07/26 08:24:39;;;;;;;3.43;2.70;;;;;;;21.25;94.88;100857.22;5269540;28;20482;-68
2021/07/26 08:27:11;;;;;;;4.43;2.90;;;;;;;21.17;95.37;100865.34;5270503;28;20425;-71
2021/07/26 08:29:42;;;;;;;4.53;2.60;;;;;;;21.17;94.66;100867.22;5268213;28;20031;-70
2021/07/26 08:32:13;;;;;;;3.80;2.40;;;;;;;21.19;96.46;100859.84;5269286;28;20032;-70
2021/07/26 08:34:44;;;;;;;3.87;2.93;;;;;;;21.19;96.25;100858.00;5266774;28;20048;-70
2021/07/26 08:37:27;;;;;;;4.33;2.60;;;;;;;21.28;96.42;100866.63;5268182;28;20032;-70
2021/07/26 08:40:02;;;;;;;5.07;2.80;;;;;;;21.17;96.54;100864.53;5269246;28;20034;-69
2021/07/26 08:42:34;;;;;;;5.88;2.70;;;;;;;21.20;95.94;100870.28;5267623;28;20111;-68
2021/07/26 08:45:06;;;;;;;4.03;2.70;;;;;;;21.11;95.34;100871.50;5266905;28;20646;-68
2021/07/26 08:47:40;;;;;;;4.18;2.60;;;;;;;21.03;95.97;100872.50;5269649;28;20044;-68
2021/07/26 08:50:14;;;;;;;4.68;2.80;;;;;;;21.21;95.53;100873.78;5269011;28;20351;-70
2021/07/26 08:52:47;;;;;;;4.05;2.78;;;;;;;21.25;95.17;100875.88;5267009;28;20020;-69
2021/07/26 08:55:21;;;;;;;2.92;2.42;;;;;;;21.42;95.59;100870.22;5269528;28;20028;-69
2021/07/26 08:57:52;;;;;;;4.05;2.47;;;;;;;21.44;93.72;100876.13;5271012;28;20029;-69
2021/07/26 09:00:24;;;;;;;4.10;2.80;;;;;;;21.48;93.29;100870.22;5273041;28;20044;-69
2021/07/26 09:02:55;;;;;;;3.97;2.58;;;;;;;21.58;94.22;100877.81;5271050;28;20378;-69
2021/07/26 09:05:27;;;;;;;8.67;2.43;;;;;;;21.55;93.29;100880.88;5271902;28;20028;-69
2021/07/26 09:08:02;;;;;;;5.23;2.77;;;;;;;21.57;94.20;100874.34;5271504;28;20032;-69
2021/07/26 09:10:35;;;;;;;5.13;2.20;;;;;;;21.49;93.77;100882.53;5268902;28;20681;-69
2021/07/26 09:13:08;;;;;;;3.20;2.38;;;;;;;21.45;93.93;100883.94;5268924;28;20025;-69
2021/07/26 09:15:44;;;;;;;2.67;2.05;;;;;;;21.44;93.60;100882.31;5268476;28;20116;-69
2021/07/26 09:18:17;;;;;;;3.22;2.33;;;;;;;21.55;94.31;100881.72;5269717;28;20064;-69
2021/07/26 09:20:51;;;;;;;4.32;2.38;;;;;;;21.64;93.81;100884.22;5271910;28;20020;-67
2021/07/26 09:23:22;;;;;;;3.58;2.42;;;;;;;21.87;93.35;100882.00;5268653;28;20496;-68
2021/07/26 09:25:55;;;;;;;7.30;3.30;;;;;;;22.10;92.82;100877.06;5270834;28;20299;-67
2021/07/26 09:28:32;;;;;;;4.38;2.97;;;;;;;22.48;90.33;100862.31;5274255;28;20055;-67
2021/07/26 09:31:04;;;;;;;3.85;3.28;;;;;;;22.35;90.21;100884.50;5273216;28;20040;-67
2021/07/26 09:33:36;;;;;;;5.68;3.60;;;;;;;22.37;88.58;100871.75;5273138;28;20035;-67
2021/07/26 09:36:19;;;;;;;4.67;3.40;;;;;;;22.40;88.90;100876.69;5271494;28;20033;-68
2021/07/26 09:38:55;;;;;;;5.13;3.58;;;;;;;22.26;88.15;100883.06;5272750;28;20031;-67
2021/07/26 09:41:48;;;;;;;5.05;3.65;;;;;;;22.31;89.77;100888.59;5275237;28;20040;-67
2021/07/26 09:44:24;;;;;;;4.57;3.45;;;;;;;22.10;88.51;100887.75;5271680;28;20024;-67
2021/07/26 09:47:17;;;;;;;5.97;4.07;;;;;;;22.11;90.21;100889.38;5271822;28;20052;-68
2021/07/26 09:49:49;;;;;;;5.13;4.00;;;;;;;21.93;89.73;100886.50;5270592;28;20095;-67
2021/07/26 09:52:22;;;;;;;6.90;4.10;;;;;;;21.94;89.54;100888.16;5269647;28;20025;-67
2021/07/26 09:54:55;;;;;;;5.57;4.63;;;;;;;21.81;91.09;100886.28;5274419;28;20032;-67
2021/07/26 09:57:27;;;;;;;6.72;4.82;;;;;;;21.78;93.41;100885.84;5273421;28;20551;-68
2021/07/26 09:59:59;;;;;;;;;;;;;;;22.00;94.23;100884.66;5276457;28;20028;-67
2021/07/26 10:02:33;;;;;;;5.97;4.63;;;;;;;21.49;96.54;100898.53;5274334;28;20438;-67
2021/07/26 10:05:05;;;;;;;6.70;5.18;;;;;;;21.34;97.20;100895.19;5271265;28;20024;-69
2021/07/26 10:07:37;;;;;;;6.83;5.47;;;;;;;21.30;98.12;100896.59;5272928;28;20062;-68
2021/07/26 10:10:09;;;;;;;6.70;5.33;;;;;;;21.31;98.15;100898.22;5273042;28;20033;-67
2021/07/26 10:12:41;;;;;;;7.45;5.47;;;;;;;21.17;99.16;100899.19;5274252;28;20099;-67
2021/07/26 10:15:12;;;;;;;6.90;5.63;;;;;;;21.11;97.99;100888.31;5275422;28;20090;-67
2021/07/26 10:17:45;;;;;;;7.50;5.40;;;;;;;21.19;99.12;100891.81;5275972;28;20036;-68
2021/07/26 10:20:29;;;;;;;;;;;;;;;21.55;96.95;100905.69;5274254;28;20024;-68
2021/07/26 10:23:14;;;;;;;6.70;5.60;;;;;;;21.49;97.83;100895.03;5274586;28;19920;-67
2021/07/26 10:26:00;;;;;;;7.90;5.50;;;;;;;21.77;98.69;100900.22;5274267;28;20129;-67
2021/07/26 10:28:41;;;;;;;7.03;5.63;;;;;;;21.96;97.07;100891.44;5275236;28;20533;-67
2021/07/26 10:31:31;;;;;;;8.50;5.60;;;;;;;22.06;94.23;100889.19;5273749;28;20436;-67
2021/07/26 10:34:13;;;;;;;6.45;5.15;;;;;;;22.03;93.88;100897.59;5274503;28;20075;-67
2021/07/26 10:36:45;;;;;;;8.55;7.07;;;;;;;21.98;99.04;100897.38;5274233;28;20099;-67
2021/07/26 10:39:17;;;;;;;8.13;6.43;;;;;;;21.93;97.36;100897.16;5271665;28;20055;-67
2021/07/26 10:41:49;;;;;;;5.90;4.32;;;;;;;21.84;94.65;100898.38;5268291;28;20032;-68
2021/07/26 10:44:20;;;;;;;4.75;3.78;;;;;;;22.23;95.12;100899.47;5267996;28;20020;-68
2021/07/26 10:46:51;;;;;;;5.67;4.20;;;;;;;22.29;90.45;100896.81;5270376;28;20532;-68
2021/07/26 10:49:42;;;;;;;8.00;5.17;;;;;;;22.54;88.95;100891.66;5270205;28;20032;-67
2021/07/26 10:52:23;;;;;;;6.10;4.10;;;;;;;22.74;86.38;100898.81;5270866;28;20044;-68
2021/07/26 10:54:55;;;;;;;5.53;4.25;;;;;;;22.82;86.36;100896.72;5271311;28;20496;-69
2021/07/26 10:57:46;;;;;;;7.28;4.20;;;;;;;22.87;86.19;100904.13;5271787;28;20377;-68
2021/07/26 11:00:20;;;;;;;6.00;4.07;;;;;;;22.62;86.61;100903.16;5271070;28;20068;-67
2021/07/26 11:02:52;;;;;;;6.03;4.07;;;;;;;22.56;86.76;100897.59;5269704;28;20060;-68
2021/07/26 11:05:26;;;;;;;6.67;3.90;;;;;;;22.80;86.54;100905.97;5271865;28;20103;-67
2021/07/26 11:08:17;;;;;;;5.53;3.75;;;;;;;23.21;88.09;100902.19;5271815;28;20027;-70
2021/07/26 11:10:50;;;;;;;5.50;4.13;;;;;;;23.29;84.16;100893.91;5267212;28;20043;-67
2021/07/26 11:13:21;;;;;;;7.82;3.50;;;;;;;23.29;84.01;100904.63;5272122;28;20079;-67
2021/07/26 11:15:55;;;;;;;4.90;4.07;;;;;;;23.22;82.78;100902.00;5253397;28;20029;-67
2021/07/26 11:18:39;;;;;;;4.57;3.88;;;;;;;23.36;83.54;100897.38;5271996;28;20632;-67
2021/07/26 11:21:12;;;;;;;5.32;3.90;;;;;;;23.46;84.67;100892.41;5270854;28;20107;-67
2021/07/26 11:23:53;;;;;;;4.78;3.85;;;;;;;23.65;82.87;100889.84;5274251;28;20029;-67
2021/07/26 11:26:29;;;;;;;6.88;4.72;;;;;;;23.71;80.93;100895.16;5264989;28;20020;-67
2021/07/26 11:29:03;;;;;;;6.72;4.05;;;;;;;23.89;80.19;100891.75;5271963;28;20546;-67
2021/07/26 11:31:38;;;;;;;6.40;4.20;;;;;;;23.88;80.05;100889.31;5264447;28;20028;-68
2021/07/26 11:34:11;;;;;;;4.20;3.80;;;;;;;23.78;80.38;100887.09;5271540;28;20489;-67
2021/07/26 11:37:14;;;;;;;4.43;3.80;;;;;;;23.99;80.70;100892.09;5264753;28;20021;-67
2021/07/26 11:40:04;;;;;;;4.85;4.20;;;;;;;24.12;80.25;100887.66;5239732;28;20437;-67
2021/07/26 11:42:39;;;;;;;4.95;3.75;;;;;;;24.24;80.23;100889.44;5272208;28;20043;-67
2021/07/26 11:45:14;;;;;;;7.45;5.18;;;;;;;24.14;77.82;100888.28;5270626;28;20104;-67
2021/07/26 11:47:48;;;;;;;5.40;4.60;;;;;;;24.42;78.56;100886.00;5270201;28;20052;-68
2021/07/26 11:50:34;;;;;;;8.20;5.63;;;;;;;24.73;77.23;100878.88;5272862;28;20028;-67
2021/07/26 11:53:06;;;;;;;6.68;4.57;;;;;;;24.55;75.60;100877.03;5268106;28;20064;-67